Time;durP1;ratioP1;P1;durP2;ratioP2;P2;SDS_P1;SDS_P2;PMS_P1;PMS_P2;Temp;Humidity;BMP_temperature;BMP_pressure;BME280_temperature;BME280_humidity;BME280_pressure;Samples;Min_cycle;Max_cycle;Signal;HPM_P1;HPM_P2
2021/11/19 00:02:14;;;;;;;;;;;;;;;22.36;26.83;98612.28;4991119;28;830;-78
2021/11/19 00:04:39;;;;;;;;;;;;;;;22.60;26.22;98612.22;4953605;29;1015;-78
2021/11/19 00:07:05;;;;;;;;;;;;;;;22.70;25.86;98613.25;4979928;28;987;-77
2021/11/19 00:09:30;;;;;;;;;;;;;;;22.42;26.46;98618.25;5027048;28;1985;-78
2021/11/19 00:11:56;;;;;;;;;;;;;;;22.29;26.48;98615.28;5010725;28;1102;-77
2021/11/19 00:14:22;;;;;;;;;;;;;;;22.13;26.80;98611.56;5009251;28;896;-80
2021/11/19 00:16:49;;;;;;;;;;;;;;;22.54;26.26;98622.50;4999303;28;958;-79
2021/11/19 00:19:15;;;;;;;;;;;;;;;22.81;25.87;98608.94;4993142;28;991;-78
2021/11/19 00:21:41;;;;;;;;;;;;;;;22.48;26.19;98610.03;4974845;28;926;-78
2021/11/19 00:24:07;;;;;;;;;;;;;;;22.32;26.45;98603.06;4972354;28;883;-79
2021/11/19 00:26:32;;;;;;;;;;;;;;;22.25;26.86;98608.88;4975104;29;903;-79
2021/11/19 00:28:59;;;;;;;;;;;;;;;22.54;26.37;98614.00;4973861;29;1891;-77
2021/11/19 00:31:24;;;;;;;;;;;;;;;22.65;26.20;98614.56;4976002;29;996;-79
2021/11/19 00:33:50;;;;;;;;;;;;;;;22.42;26.55;98601.25;4954926;29;928;-78
2021/11/19 00:36:16;;;;;;;;;;;;;;;22.30;26.37;98608.38;4970991;29;1242;-78
2021/11/19 00:38:41;;;;;;;;;;;;;;;22.20;26.50;98609.38;4972725;29;938;-78
2021/11/19 00:41:08;;;;;;;;;;;;;;;22.36;27.09;98603.78;4956534;29;903;-78
2021/11/19 00:43:34;;;;;;;;;;;;;;;22.59;26.36;98607.81;4953122;29;915;-78
2021/11/19 00:45:59;;;;;;;;;;;;;;;22.74;26.27;98599.75;4956216;29;1014;-78
2021/11/19 00:48:25;;;;;;;;;;;;;;;22.44;26.35;98609.34;4933010;29;1891;-78
2021/11/19 00:50:52;;;;;;;;;;;;;;;22.31;26.38;98595.78;4892308;29;956;-78
2021/11/19 00:53:18;;;;;;;;;;;;;;;22.31;26.47;98589.31;4912421;29;1099;-79
2021/11/19 00:55:43;;;;;;;;;;;;;;;22.67;26.21;98582.91;4915509;29;1130;-78
2021/11/19 00:58:09;;;;;;;;;;;;;;;22.59;26.40;98594.41;4913958;29;1269;-79
2021/11/19 01:00:45;;;;;;;;;;;;;;;22.63;26.19;98586.59;4898827;29;1173;-78
2021/11/19 01:03:13;;;;;;;;;;;;;;;22.20;26.96;98592.38;4877939;29;1611;-78
2021/11/19 01:05:39;;;;;;;;;;;;;;;22.28;26.53;98591.00;4846550;29;1140;-79
2021/11/19 01:08:05;;;;;;;;;;;;;;;22.28;26.64;98596.69;4799797;29;1911;-78
2021/11/19 01:10:31;;;;;;;;;;;;;;;22.47;26.79;98591.44;4849131;29;1204;-79
2021/11/19 01:12:57;;;;;;;;;;;;;;;22.69;26.47;98581.25;4860265;29;1216;-79
2021/11/19 01:15:25;;;;;;;;;;;;;;;22.58;26.63;98587.13;4845402;29;922;-79
2021/11/19 01:17:52;;;;;;;;;;;;;;;22.34;26.64;98580.75;4820130;29;1161;-79
2021/11/19 01:20:24;;;;;;;;;;;;;;;22.38;26.91;98577.81;4804426;30;1101;-79
2021/11/19 01:22:51;;;;;;;;;;;;;;;22.11;27.05;98580.81;4806986;29;1089;-79
2021/11/19 01:25:18;;;;;;;;;;;;;;;22.53;26.59;98581.16;4772170;30;1103;-78
2021/11/19 01:27:44;;;;;;;;;;;;;;;22.67;26.38;98577.22;4788852;30;1196;-79
2021/11/19 01:30:11;;;;;;;;;;;;;;;22.47;26.52;98585.75;4765540;30;1259;-79
2021/11/19 01:32:37;;;;;;;;;;;;;;;22.46;26.55;98578.50;4735800;30;1180;-79
2021/11/19 01:35:06;;;;;;;;;;;;;;;22.25;26.93;98580.53;4720657;30;1078;-79
2021/11/19 01:37:51;;;;;;;;;;;;;;;22.49;26.60;98588.97;4753843;30;1040;-79
2021/11/19 01:40:29;;;;;;;;;;;;;;;22.59;26.45;98573.78;4771396;30;1267;-78
2021/11/19 01:43:02;;;;;;;;;;;;;;;22.61;26.49;98579.78;4788053;30;1252;-79
2021/11/19 01:45:31;;;;;;;;;;;;;;;22.36;26.79;98589.63;4774609;30;1110;-79
2021/11/19 01:48:00;;;;;;;;;;;;;;;22.30;26.88;98594.19;4735673;30;1896;-79
2021/11/19 01:50:29;;;;;;;;;;;;;;;22.39;26.90;98590.00;4717013;30;1443;-79
2021/11/19 01:53:02;;;;;;;;;;;;;;;22.58;26.83;98592.00;4732146;30;1173;-80
2021/11/19 01:55:28;;;;;;;;;;;;;;;22.62;26.51;98587.06;4747566;30;1237;-79
2021/11/19 01:58:04;;;;;;;;;;;;;;;22.50;26.45;98599.88;4817177;29;1239;-79
2021/11/19 02:00:32;;;;;;;;;;;;;;;22.24;27.24;98595.94;4839699;29;1274;-78
2021/11/19 02:02:58;;;;;;;;;;;;;;;22.28;26.64;98602.34;4862545;29;1558;-79
2021/11/19 02:05:38;;;;;;;;;;;;;;;22.21;27.33;98591.13;4882192;29;1348;-79
2021/11/19 02:08:14;;;;;;;;;;;;;;;22.55;26.86;98588.00;4864035;29;1968;-79
2021/11/19 02:11:00;;;;;;;;;;;;;;;22.80;26.42;98587.47;4864239;29;1201;-79
2021/11/19 02:13:45;;;;;;;;;;;;;;;22.49;26.32;98589.78;4873303;29;1299;-79
2021/11/19 02:16:13;;;;;;;;;;;;;;;22.30;27.05;98588.53;4895689;29;1132;-79
2021/11/19 02:18:41;;;;;;;;;;;;;;;22.01;27.30;98576.13;4920651;29;903;-79
2021/11/19 02:21:26;;;;;;;;;;;;;;;22.47;27.13;98575.22;4974361;29;1163;-79
2021/11/19 02:24:01;;;;;;;;;;;;;;;22.62;26.68;98575.72;4933131;29;1026;-78
2021/11/19 02:26:37;;;;;;;;;;;;;;;22.81;26.30;98565.56;4919593;29;1228;-78
2021/11/19 02:29:03;;;;;;;;;;;;;;;22.73;26.32;98564.91;4884483;29;1988;-79
2021/11/19 02:31:31;;;;;;;;;;;;;;;22.45;26.66;98571.22;4834265;29;1084;-79
2021/11/19 02:33:58;;;;;;;;;;;;;;;22.31;27.01;98573.09;4874441;29;1241;-78
2021/11/19 02:36:27;;;;;;;;;;;;;;;22.26;27.26;98572.81;4886660;29;1319;-78
2021/11/19 02:38:59;;;;;;;;;;;;;;;22.19;27.15;98570.94;4884516;29;1148;-78
2021/11/19 02:41:29;;;;;;;;;;;;;;;22.14;27.52;98579.94;4859759;29;1216;-78
2021/11/19 02:43:57;;;;;;;;;;;;;;;22.34;27.25;98572.25;4871839;29;1100;-78
2021/11/19 02:46:23;;;;;;;;;;;;;;;22.68;26.29;98568.28;4893029;29;1415;-78
2021/11/19 02:48:49;;;;;;;;;;;;;;;22.73;26.66;98567.75;4866840;29;1888;-78
2021/11/19 02:51:18;;;;;;;;;;;;;;;22.33;27.17;98569.84;4844454;29;1161;-79
2021/11/19 02:53:45;;;;;;;;;;;;;;;22.21;27.36;98571.28;4872258;29;1220;-78
2021/11/19 02:56:10;;;;;;;;;;;;;;;22.42;26.86;98572.09;4856903;29;1106;-78
2021/11/19 02:58:39;;;;;;;;;;;;;;;22.53;27.06;98567.00;4852442;29;1118;-78
2021/11/19 03:01:11;;;;;;;;;;;;;;;22.60;26.72;98561.19;4874386;29;1012;-78
2021/11/19 03:03:37;;;;;;;;;;;;;;;22.27;27.12;98568.75;4874905;29;1071;-79
2021/11/19 03:06:02;;;;;;;;;;;;;;;22.33;26.92;98559.31;4878577;29;945;-78
2021/11/19 03:08:29;;;;;;;;;;;;;;;22.05;27.47;98557.00;4874522;29;1955;-78
2021/11/19 03:10:56;;;;;;;;;;;;;;;22.29;27.51;98563.47;4882247;29;1216;-78
2021/11/19 03:13:23;;;;;;;;;;;;;;;22.43;27.17;98556.66;4946336;29;1254;-79
2021/11/19 03:15:49;;;;;;;;;;;;;;;22.66;26.55;98559.41;4883235;29;1065;-79
2021/11/19 03:18:15;;;;;;;;;;;;;;;22.23;27.24;98568.03;4906496;29;1197;-78
2021/11/19 03:20:43;;;;;;;;;;;;;;;22.44;27.07;98563.97;4911916;29;1390;-78
2021/11/19 03:23:08;;;;;;;;;;;;;;;22.24;27.14;98561.94;4892498;29;1284;-78
2021/11/19 03:25:37;;;;;;;;;;;;;;;22.40;27.30;98566.06;4894216;29;1216;-78
2021/11/19 03:28:05;;;;;;;;;;;;;;;22.70;26.87;98560.16;4895597;29;2006;-78
2021/11/19 03:30:33;;;;;;;;;;;;;;;22.80;26.28;98564.78;4838434;29;1268;-78
2021/11/19 03:32:59;;;;;;;;;;;;;;;22.24;27.31;98567.59;4822525;29;1162;-78
2021/11/19 03:35:25;;;;;;;;;;;;;;;22.35;26.88;98573.84;4832965;29;984;-78
2021/11/19 03:37:51;;;;;;;;;;;;;;;22.31;27.03;98566.66;4838376;29;1210;-78
2021/11/19 03:40:19;;;;;;;;;;;;;;;22.69;26.78;98563.41;4839394;29;1475;-78
2021/11/19 03:42:45;;;;;;;;;;;;;;;22.72;26.57;98566.16;4839768;29;1301;-78
2021/11/19 03:45:12;;;;;;;;;;;;;;;22.37;27.18;98581.91;4808857;29;1221;-79
2021/11/19 03:47:38;;;;;;;;;;;;;;;22.32;26.86;98574.69;4826580;29;1096;-80
2021/11/19 03:50:08;;;;;;;;;;;;;;;22.25;27.40;98580.53;4837048;29;1926;-77
2021/11/19 03:52:36;;;;;;;;;;;;;;;22.44;27.33;98584.59;4872766;29;1210;-77
2021/11/19 03:55:05;;;;;;;;;;;;;;;22.58;27.11;98580.66;4868772;29;1087;-77
2021/11/19 03:57:30;;;;;;;;;;;;;;;22.47;26.99;98591.44;4853833;29;1189;-77
2021/11/19 03:59:56;;;;;;;;;;;;;;;22.37;27.22;98598.91;4811926;29;1174;-77
2021/11/19 04:02:25;;;;;;;;;;;;;;;22.26;27.30;98601.97;4849238;29;1277;-77
2021/11/19 04:04:51;;;;;;;;;;;;;;;22.60;27.01;98600.88;4836918;29;1422;-77
2021/11/19 04:07:18;;;;;;;;;;;;;;;22.54;27.20;98603.44;4820951;29;1595;-77
2021/11/19 04:09:44;;;;;;;;;;;;;;;22.66;26.73;98599.13;4814991;29;1899;-77
2021/11/19 04:12:11;;;;;;;;;;;;;;;22.40;27.41;98605.75;4841270;29;1258;-77
2021/11/19 04:14:36;;;;;;;;;;;;;;;22.27;27.32;98606.41;4867874;29;1055;-78
2021/11/19 04:17:02;;;;;;;;;;;;;;;22.34;27.47;98606.28;4854295;29;1181;-77
2021/11/19 04:19:28;;;;;;;;;;;;;;;22.64;27.12;98584.59;4852254;29;1219;-77
2021/11/19 04:21:54;;;;;;;;;;;;;;;22.69;26.93;98592.59;4871558;29;1416;-77
2021/11/19 04:24:24;;;;;;;;;;;;;;;22.58;26.67;98603.34;4780599;29;1101;-77
2021/11/19 04:26:50;;;;;;;;;;;;;;;22.29;27.40;98603.16;4802537;29;1700;-77
2021/11/19 04:29:16;;;;;;;;;;;;;;;22.19;27.41;98604.94;4836246;29;1888;-77
2021/11/19 04:31:54;;;;;;;;;;;;;;;22.41;27.37;98593.19;4838185;29;1129;-77
2021/11/19 04:34:20;;;;;;;;;;;;;;;22.56;27.32;98594.47;4856071;29;1308;-77
2021/11/19 04:36:45;;;;;;;;;;;;;;;22.60;26.82;98596.00;4857566;29;990;-77
2021/11/19 04:39:11;;;;;;;;;;;;;;;22.35;27.08;98602.19;4858097;29;895;-77
2021/11/19 04:41:37;;;;;;;;;;;;;;;22.31;27.06;98595.78;4860279;29;1211;-77
2021/11/19 04:44:03;;;;;;;;;;;;;;;22.38;27.21;98608.22;4889442;29;1252;-77
2021/11/19 04:46:35;;;;;;;;;;;;;;;22.66;27.13;98599.13;4910049;29;1098;-77
2021/11/19 04:49:01;;;;;;;;;;;;;;;22.67;26.89;98599.94;4891340;29;1903;-77
2021/11/19 04:51:27;;;;;;;;;;;;;;;22.41;27.09;98598.84;4873906;29;924;-77
2021/11/19 04:53:53;;;;;;;;;;;;;;;22.34;26.90;98600.59;4888241;29;1095;-77
2021/11/19 04:56:18;;;;;;;;;;;;;;;22.46;26.92;98592.66;4896679;29;1273;-77
2021/11/19 04:58:44;;;;;;;;;;;;;;;22.47;27.54;98594.25;4861504;29;1470;-77
2021/11/19 05:01:11;;;;;;;;;;;;;;;22.59;27.41;98588.75;4863161;29;1021;-77
2021/11/19 05:03:55;;;;;;;;;;;;;;;22.54;26.95;98597.78;4840012;29;949;-77
2021/11/19 05:06:21;;;;;;;;;;;;;;;22.26;27.53;98599.13;4838566;29;1211;-78
2021/11/19 05:08:47;;;;;;;;;;;;;;;22.31;27.21;98601.47;4818702;29;1971;-78
2021/11/19 05:11:17;;;;;;;;;;;;;;;22.36;27.90;98603.78;4822414;29;1197;-77
2021/11/19 05:13:42;;;;;;;;;;;;;;;22.67;27.02;98589.38;4820359;29;1304;-77
2021/11/19 05:16:09;;;;;;;;;;;;;;;22.69;26.87;98603.13;4839685;29;1116;-77
2021/11/19 05:18:35;;;;;;;;;;;;;;;22.39;27.09;98601.34;4850712;29;1130;-77
2021/11/19 05:21:00;;;;;;;;;;;;;;;22.36;27.12;98603.78;4866150;29;1194;-77
2021/11/19 05:23:26;;;;;;;;;;;;;;;22.32;27.31;98602.25;4866376;29;1346;-77
2021/11/19 05:25:53;;;;;;;;;;;;;;;22.51;27.63;98606.34;4842177;29;1080;-77
2021/11/19 05:28:22;;;;;;;;;;;;;;;22.61;27.20;98619.50;4853592;29;1979;-78
2021/11/19 05:30:49;;;;;;;;;;;;;;;22.41;27.24;98616.66;4857633;29;1076;-77
2021/11/19 05:33:15;;;;;;;;;;;;;;;22.47;27.45;98625.47;4873658;29;1240;-77
2021/11/19 05:35:41;;;;;;;;;;;;;;;22.44;27.21;98626.34;4858281;29;1261;-77
2021/11/19 05:38:07;;;;;;;;;;;;;;;22.18;27.53;98625.25;4869881;29;1098;-77
2021/11/19 05:40:32;;;;;;;;;;;;;;;22.17;27.53;98624.41;4893697;29;1238;-77
2021/11/19 05:42:58;;;;;;;;;;;;;;;22.16;27.80;98639.81;4896378;29;1212;-77
2021/11/19 05:45:24;;;;;;;;;;;;;;;22.65;27.23;98642.13;4922871;29;1194;-78
2021/11/19 05:48:13;;;;;;;;;;;;;;;22.75;26.89;98636.22;4911117;29;1884;-78
2021/11/19 05:50:40;;;;;;;;;;;;;;;22.42;27.36;98634.47;4911708;29;1102;-78
2021/11/19 05:53:07;;;;;;;;;;;;;;;22.07;27.76;98629.03;4910103;29;1126;-79
2021/11/19 05:55:35;;;;;;;;;;;;;;;22.20;27.96;98632.06;4895852;29;1284;-78
2021/11/19 05:58:01;;;;;;;;;;;;;;;22.24;27.97;98629.16;4911203;29;1178;-78
2021/11/19 06:00:28;;;;;;;;;;;;;;;22.67;27.14;98629.09;4858738;29;1135;-78
2021/11/19 06:03:04;;;;;;;;;;;;;;;22.71;26.88;98635.50;4837940;29;1260;-78
2021/11/19 06:05:29;;;;;;;;;;;;;;;22.45;27.54;98639.28;4829946;29;870;-78
2021/11/19 06:08:14;;;;;;;;;;;;;;;22.25;27.62;98631.56;4820523;29;1953;-78
2021/11/19 06:10:41;;;;;;;;;;;;;;;22.26;28.07;98633.16;4838095;29;1204;-78
2021/11/19 06:13:09;;;;;;;;;;;;;;;22.65;27.40;98640.09;4854399;29;1364;-78
2021/11/19 06:15:35;;;;;;;;;;;;;;;22.65;27.34;98637.25;4856018;29;957;-77
2021/11/19 06:18:02;;;;;;;;;;;;;;;22.49;27.15;98652.16;4853981;29;950;-78
2021/11/19 06:20:34;;;;;;;;;;;;;;;22.41;27.35;98644.22;4856222;29;1197;-78
2021/11/19 06:23:09;;;;;;;;;;;;;;;22.26;27.50;98638.03;4851910;29;974;-78
2021/11/19 06:25:37;;;;;;;;;;;;;;;22.55;27.64;98647.56;4895017;29;1355;-78
2021/11/19 06:28:03;;;;;;;;;;;;;;;22.60;27.34;98647.06;4911817;29;1972;-77
2021/11/19 06:30:29;;;;;;;;;;;;;;;22.51;27.25;98637.53;4943120;29;1203;-78
2021/11/19 06:32:54;;;;;;;;;;;;;;;22.30;27.85;98644.44;4911737;29;984;-78
2021/11/19 06:35:20;;;;;;;;;;;;;;;22.27;27.69;98651.75;4909751;29;1288;-78
2021/11/19 06:37:45;;;;;;;;;;;;;;;22.06;27.80;98640.78;4910445;29;1177;-79
2021/11/19 06:40:22;;;;;;;;;;;;;;;22.68;27.38;98644.06;4928959;29;1173;-78
2021/11/19 06:43:10;;;;;;;;;;;;;;;22.67;27.45;98643.28;4943811;29;1003;-79
2021/11/19 06:46:02;;;;;;;;;;;;;;;22.40;27.63;98642.63;4930616;29;1161;-79
2021/11/19 06:48:41;;;;;;;;;;;;;;;22.39;27.39;98641.03;4927317;29;1887;-79
2021/11/19 06:51:17;;;;;;;;;;;;;;;22.46;27.70;98640.88;4912026;29;1272;-79
2021/11/19 06:54:05;;;;;;;;;;;;;;;22.75;27.30;98630.56;4930162;29;1252;-79
2021/11/19 06:56:57;;;;;;;;;;;;;;;22.69;26.86;98632.31;4944522;29;1100;-79
2021/11/19 06:59:28;;;;;;;;;;;;;;;22.47;27.41;98636.81;4986145;28;1289;-79
2021/11/19 07:01:53;;;;;;;;;;;;;;;22.48;27.51;98644.06;4987870;28;1011;-78
2021/11/19 07:04:19;;;;;;;;;;;;;;;22.24;27.68;98646.97;4969429;28;1124;-78
2021/11/19 07:06:44;;;;;;;;;;;;;;;22.69;27.45;98643.66;4936018;29;1180;-79
2021/11/19 07:09:11;;;;;;;;;;;;;;;22.75;27.15;98647.56;4909298;29;1966;-79
2021/11/19 07:11:37;;;;;;;;;;;;;;;22.53;27.54;98635.06;4905632;29;1296;-79
2021/11/19 07:14:02;;;;;;;;;;;;;;;22.19;27.86;98633.28;4886990;29;1273;-79
2021/11/19 07:16:29;;;;;;;;;;;;;;;22.29;27.69;98631.50;4894453;29;1359;-79
2021/11/19 07:18:56;;;;;;;;;;;;;;;22.47;27.25;98631.13;4897397;29;1289;-79
2021/11/19 07:21:25;;;;;;;;;;;;;;;22.31;27.73;98626.97;4903992;29;1209;-79
2021/11/19 07:23:50;;;;;;;;;;;;;;;22.26;27.67;98629.53;4916128;29;1363;-79
2021/11/19 07:26:16;;;;;;;;;;;;;;;22.55;27.53;98621.25;4936510;29;1359;-79
2021/11/19 07:28:42;;;;;;;;;;;;;;;22.65;27.42;98625.09;4938510;29;1891;-79
2021/11/19 07:31:26;;;;;;;;;;;;;;;22.57;27.05;98624.44;4945025;29;1130;-79
2021/11/19 07:34:14;;;;;;;;;;;;;;;22.28;27.36;98621.41;4926928;29;1192;-78
2021/11/19 07:36:58;;;;;;;;;;;;;;;22.28;27.68;98616.53;4957524;29;1170;-79
2021/11/19 07:39:59;;;;;;;;;;;;;;;22.57;27.64;98619.56;4958374;29;1149;-79
2021/11/19 07:42:44;;;;;;;;;;;;;;;23.03;26.59;98619.84;4967106;29;1243;-79
2021/11/19 07:45:15;;;;;;;;;;;;;;;22.57;27.22;98619.56;4947655;29;1271;-79
2021/11/19 07:47:45;;;;;;;;;;;;;;;22.55;26.93;98621.25;4947653;29;1308;-79
2021/11/19 07:50:12;;;;;;;;;;;;;;;22.31;27.14;98620.50;4907663;29;1975;-79
2021/11/19 07:52:38;;;;;;;;;;;;;;;22.55;27.90;98632.59;4909018;29;1366;-78
2021/11/19 07:55:04;;;;;;;;;;;;;;;22.71;27.10;98629.81;4889321;29;1445;-79
2021/11/19 07:57:30;;;;;;;;;;;;;;;22.47;27.63;98625.47;4910770;29;1237;-78
2021/11/19 07:59:55;;;;;;;;;;;;;;;22.29;27.71;98620.94;4923797;29;1323;-78
2021/11/19 08:02:21;;;;;;;;;;;;;;;22.43;27.47;98619.84;4913185;29;1193;-78
2021/11/19 08:04:46;;;;;;;;;;;;;;;22.34;27.45;98614.78;4930445;29;1252;-79
2021/11/19 08:07:28;;;;;;;;;;;;;;;22.52;27.40;98622.13;4877794;29;1276;-79
2021/11/19 08:10:20;;;;;;;;;;;;;;;22.47;27.62;98616.94;4911293;29;1887;-78
2021/11/19 08:12:47;;;;;;;;;;;;;;;22.44;27.53;98610.13;4905184;29;1327;-79
2021/11/19 08:15:22;;;;;;;;;;;;;;;22.14;28.08;98613.16;4850711;29;1307;-79
2021/11/19 08:17:49;;;;;;;;;;;;;;;22.35;27.64;98607.06;4870782;29;1489;-79
2021/11/19 08:20:27;;;;;;;;;;;;;;;22.61;27.40;98613.81;4891575;29;1216;-78
2021/11/19 08:22:53;;;;;;;;;;;;;;;22.68;27.05;98608.00;4897418;29;1263;-79
2021/11/19 08:25:19;;;;;;;;;;;;;;;22.25;27.83;98611.72;4968936;29;1817;-78
2021/11/19 08:27:48;;;;;;;;;;;;;;;22.30;27.68;98607.56;4959379;29;1199;-79
2021/11/19 08:30:16;;;;;;;;;;;;;;;22.12;28.08;98607.91;4949185;29;1906;-79
2021/11/19 08:32:41;;;;;;;;;;;;;;;22.14;27.58;98579.16;4947376;29;1278;-79
2021/11/19 08:35:09;;;;;;;;;;;;;;;22.62;27.34;98621.88;4938632;29;1196;-79
2021/11/19 08:37:34;;;;;;;;;;;;;;;22.52;27.50;98613.59;4979505;28;1258;-79
2021/11/19 08:40:00;;;;;;;;;;;;;;;22.54;27.05;98608.31;4969419;29;1361;-79
2021/11/19 08:42:26;;;;;;;;;;;;;;;22.21;27.81;98601.69;4973041;29;845;-80
2021/11/19 08:44:51;;;;;;;;;;;;;;;22.44;27.30;98609.34;4991927;28;1117;-79
2021/11/19 08:47:17;;;;;;;;;;;;;;;22.67;27.02;98602.75;4983085;28;947;-79
2021/11/19 08:49:43;;;;;;;;;;;;;;;22.75;26.91;98590.84;4970069;29;1887;-79
2021/11/19 08:52:09;;;;;;;;;;;;;;;22.50;27.10;98601.91;4974831;28;990;-79
2021/11/19 08:54:34;;;;;;;;;;;;;;;22.26;27.22;98601.97;4992906;28;961;-78
2021/11/19 08:57:01;;;;;;;;;;;;;;;22.09;27.63;98605.94;4967805;28;971;-78
2021/11/19 08:59:28;;;;;;;;;;;;;;;22.59;27.33;98600.09;4986732;28;1067;-79
2021/11/19 09:01:54;;;;;;;;;;;;;;;22.70;27.25;98594.19;4992305;28;972;-79
2021/11/19 09:04:23;;;;;;;;;;;;;;;22.38;27.41;98596.88;5029648;28;1004;-79
2021/11/19 09:06:48;;;;;;;;;;;;;;;22.32;27.63;98579.56;5031066;28;943;-79
2021/11/19 09:09:14;;;;;;;;;;;;;;;22.04;27.85;98572.41;5012363;28;1975;-79
2021/11/19 09:11:40;;;;;;;;;;;;;;;22.42;27.62;98563.59;5031141;28;1164;-79
2021/11/19 09:14:05;;;;;;;;;;;;;;;22.67;27.28;98566.69;5028181;28;948;-78
2021/11/19 09:16:37;;;;;;;;;;;;;;;22.71;26.80;98553.22;4957198;28;1107;-78
2021/11/19 09:19:11;;;;;;;;;;;;;;;22.34;27.44;98554.44;4931655;29;962;-79
2021/11/19 09:21:48;;;;;;;;;;;;;;;22.33;27.31;98545.13;4952402;29;1061;-79
2021/11/19 09:24:18;;;;;;;;;;;;;;;22.40;27.25;98537.72;4934570;29;966;-79
2021/11/19 09:26:48;;;;;;;;;;;;;;;22.70;27.31;98540.28;4917835;29;1002;-78
2021/11/19 09:29:16;;;;;;;;;;;;;;;22.70;26.87;98534.63;4911900;29;1895;-79
2021/11/19 09:31:42;;;;;;;;;;;;;;;22.87;26.84;98533.41;4876457;29;964;-79
2021/11/19 09:34:08;;;;;;;;;;;;;;;22.71;26.98;98530.53;4884922;29;1035;-78
2021/11/19 09:36:33;;;;;;;;;;;;;;;22.36;27.37;98524.41;4913145;29;1048;-78
2021/11/19 09:38:59;;;;;;;;;;;;;;;22.40;27.09;98523.53;4948121;29;1006;-78
2021/11/19 09:41:31;;;;;;;;;;;;;;;22.55;27.29;98510.66;4951867;29;1029;-79
2021/11/19 09:43:57;;;;;;;;;;;;;;;22.10;28.12;98516.84;4929500;29;976;-78
2021/11/19 09:46:39;;;;;;;;;;;;;;;22.21;27.78;98503.25;4933095;29;964;-78
2021/11/19 09:49:07;;;;;;;;;;;;;;;22.06;27.90;98505.56;4934090;29;1978;-78
2021/11/19 09:51:51;;;;;;;;;;;;;;;22.54;27.54;98497.72;4969262;29;1016;-79
2021/11/19 09:54:26;;;;;;;;;;;;;;;22.72;27.25;98500.91;4968031;29;1103;-78
2021/11/19 09:56:54;;;;;;;;;;;;;;;22.50;27.19;98491.31;4930689;29;960;-79
2021/11/19 09:59:32;;;;;;;;;;;;;;;22.22;27.56;98485.00;4911575;29;1263;-78
2021/11/19 10:02:16;;;;;;;;;;;;;;;22.29;27.76;98489.75;4946377;29;1139;-78
2021/11/19 10:04:42;;;;;;;;;;;;;;;22.32;27.84;98489.66;4922601;29;938;-78
2021/11/19 10:07:23;;;;;;;;;;;;;;;22.30;27.71;98475.13;4924377;29;1058;-78
2021/11/19 10:09:54;;;;;;;;;;;;;;;22.66;27.25;98485.66;4947989;29;1997;-78
2021/11/19 10:12:23;;;;;;;;;;;;;;;22.79;26.90;98478.03;4949582;29;957;-77
2021/11/19 10:14:54;;;;;;;;;;;;;;;22.35;27.43;98460.44;4960563;28;1668;-78
2021/11/19 10:17:35;;;;;;;;;;;;;;;22.26;27.48;98463.06;4931388;29;959;-78
2021/11/19 10:20:05;;;;;;;;;;;;;;;22.41;27.37;98459.91;4928615;29;1046;-77
2021/11/19 10:22:36;;;;;;;;;;;;;;;22.42;27.66;98458.66;4931009;29;908;-78
2021/11/19 10:25:11;;;;;;;;;;;;;;;22.67;27.51;98453.22;4928578;29;939;-78
2021/11/19 10:27:45;;;;;;;;;;;;;;;22.59;26.91;98446.13;4957511;28;942;-78
2021/11/19 10:30:16;;;;;;;;;;;;;;;22.22;27.97;98456.66;4950562;28;1997;-78
2021/11/19 10:32:41;;;;;;;;;;;;;;;22.28;27.36;98452.09;4930191;29;1398;-78
2021/11/19 10:35:26;;;;;;;;;;;;;;;22.17;28.36;98453.56;4945061;29;1012;-77
2021/11/19 10:37:55;;;;;;;;;;;;;;;22.67;27.46;98446.75;4965733;29;1036;-78
2021/11/19 10:40:29;;;;;;;;;;;;;;;22.61;27.29;98438.78;4968450;29;1018;-78
2021/11/19 10:43:07;;;;;;;;;;;;;;;22.57;27.19;98437.25;4967557;29;954;-78
2021/11/19 10:45:47;;;;;;;;;;;;;;;22.13;27.47;98430.19;4961342;28;987;-78
2021/11/19 10:48:18;;;;;;;;;;;;;;;22.00;28.02;98424.34;4964327;28;1879;-78
2021/11/19 10:50:47;;;;;;;;;;;;;;;22.44;28.03;98422.19;4989007;28;1035;-78
2021/11/19 10:53:31;;;;;;;;;;;;;;;22.69;27.17;98416.72;4987001;28;1029;-78
2021/11/19 10:56:02;;;;;;;;;;;;;;;22.55;27.19;98408.56;4989524;28;965;-78
2021/11/19 10:58:40;;;;;;;;;;;;;;;22.42;27.34;98405.59;4987256;28;992;-79
2021/11/19 11:01:07;;;;;;;;;;;;;;;21.92;28.04;98405.91;4989886;28;920;-78
2021/11/19 11:03:35;;;;;;;;;;;;;;;22.52;27.58;98403.75;4985217;28;866;-79
2021/11/19 11:06:01;;;;;;;;;;;;;;;22.66;27.19;98406.25;5006214;28;1016;-78
2021/11/19 11:08:28;;;;;;;;;;;;;;;22.76;26.76;98399.50;5001863;28;1950;-78
2021/11/19 11:10:59;;;;;;;;;;;;;;;22.40;27.22;98387.44;4983190;28;1099;-78
2021/11/19 11:13:25;;;;;;;;;;;;;;;22.36;27.24;98388.31;4965576;29;978;-78
2021/11/19 11:15:52;;;;;;;;;;;;;;;22.49;27.60;98390.47;4978173;28;1010;-78
2021/11/19 11:18:21;;;;;;;;;;;;;;;22.82;26.88;98392.06;5004543;28;1030;-78
2021/11/19 11:20:52;;;;;;;;;;;;;;;22.72;26.89;98393.13;5007590;28;984;-78
2021/11/19 11:23:36;;;;;;;;;;;;;;;22.29;27.65;98388.50;5004658;28;949;-78
2021/11/19 11:26:10;;;;;;;;;;;;;;;22.48;27.32;98388.84;5008083;28;890;-78
2021/11/19 11:28:40;;;;;;;;;;;;;;;22.56;27.38;98379.75;5003875;28;1881;-78
2021/11/19 11:31:32;;;;;;;;;;;;;;;22.44;27.70;98376.81;5007305;28;925;-78
2021/11/19 11:34:24;;;;;;;;;;;;;;;22.69;27.48;98376.19;4970289;28;1079;-78
2021/11/19 11:37:08;;;;;;;;;;;;;;;22.55;27.58;98383.03;4969094;29;1144;-78
2021/11/19 11:39:40;;;;;;;;;;;;;;;22.35;27.89;98368.91;4987614;28;960;-78
2021/11/19 11:42:13;;;;;;;;;;;;;;;22.35;27.72;98358.38;4975732;28;1148;-78
2021/11/19 11:44:40;;;;;;;;;;;;;;;22.43;27.70;98358.19;4972156;28;1120;-79
2021/11/19 11:47:07;;;;;;;;;;;;;;;22.40;27.39;98347.75;4937664;29;1347;-78
2021/11/19 11:50:02;;;;;;;;;;;;;;;22.34;27.71;98345.44;4917527;29;1915;-78
2021/11/19 11:52:32;;;;;;;;;;;;;;;22.32;27.84;98342.22;4921672;29;1141;-78
2021/11/19 11:55:06;;;;;;;;;;;;;;;22.44;27.89;98337.91;4901296;29;1441;-78
2021/11/19 11:57:35;;;;;;;;;;;;;;;22.54;27.50;98342.53;4918072;29;1358;-79
2021/11/19 12:00:06;;;;;;;;;;;;;;;22.71;27.40;98334.81;4907141;29;1457;-78
2021/11/19 12:02:37;;;;;;;;;;;;;;;22.51;27.45;98343.41;4884858;29;1198;-79
2021/11/19 12:05:21;;;;;;;;;;;;;;;22.34;27.43;98339.78;4869317;29;1423;-79
2021/11/19 12:07:52;;;;;;;;;;;;;;;22.47;27.73;98336.22;4892195;29;1436;-78
2021/11/19 12:10:36;;;;;;;;;;;;;;;22.59;27.45;98344.03;4875246;29;1918;-78
2021/11/19 12:13:07;;;;;;;;;;;;;;;22.65;27.52;98347.94;4881850;29;967;-78
2021/11/19 12:15:41;;;;;;;;;;;;;;;22.41;27.23;98335.16;4872985;29;936;-77
2021/11/19 12:18:25;;;;;;;;;;;;;;;22.21;27.30;98341.69;4871490;29;964;-79
2021/11/19 12:21:00;;;;;;;;;;;;;;;22.24;27.50;98340.03;4885815;29;957;-78
2021/11/19 12:23:28;;;;;;;;;;;;;;;22.31;27.15;98334.97;4889624;29;972;-78
2021/11/19 12:26:12;;;;;;;;;;;;;;;22.58;27.74;98333.91;4911578;29;1259;-78
2021/11/19 12:28:42;;;;;;;;;;;;;;;22.71;27.19;98331.97;4922870;29;1888;-78
2021/11/19 12:31:14;;;;;;;;;;;;;;;22.48;27.78;98337.81;4931716;29;907;-78
2021/11/19 12:33:41;;;;;;;;;;;;;;;22.05;28.24;98333.16;4936566;29;903;-78
2021/11/19 12:36:06;;;;;;;;;;;;;;;22.28;27.48;98329.41;4912851;29;1027;-79
2021/11/19 12:38:35;;;;;;;;;;;;;;;22.17;27.91;98323.19;4893847;29;923;-78
2021/11/19 12:41:03;;;;;;;;;;;;;;;22.41;27.56;98323.81;4864813;29;1015;-78
2021/11/19 12:43:43;;;;;;;;;;;;;;;22.73;27.43;98326.63;4873184;29;1015;-78
2021/11/19 12:46:28;;;;;;;;;;;;;;;22.76;27.41;98314.41;4896424;29;961;-78
2021/11/19 12:49:12;;;;;;;;;;;;;;;22.58;27.38;98316.91;4892738;29;1903;-78
2021/11/19 12:51:46;;;;;;;;;;;;;;;22.33;27.67;98309.03;4895850;29;949;-78
2021/11/19 12:54:30;;;;;;;;;;;;;;;22.31;27.41;98306.63;4893989;29;919;-78
2021/11/19 12:57:05;;;;;;;;;;;;;;;22.03;28.27;98301.63;4895011;29;985;-78
2021/11/19 12:59:40;;;;;;;;;;;;;;;22.36;27.59;98302.47;4893463;29;906;-78
2021/11/19 13:02:08;;;;;;;;;;;;;;;22.43;28.04;98301.47;4886458;29;947;-79
2021/11/19 13:04:35;;;;;;;;;;;;;;;22.65;27.43;98302.53;4891826;29;1060;-78
2021/11/19 13:07:08;;;;;;;;;;;;;;;22.48;27.46;98292.44;4932210;29;946;-79
2021/11/19 13:09:43;;;;;;;;;;;;;;;22.13;28.15;98294.94;4941463;29;1883;-79
2021/11/19 13:12:27;;;;;;;;;;;;;;;22.32;27.71;98301.75;4963198;28;1082;-78
2021/11/19 13:15:31;;;;;;;;;;;;;;;22.63;27.54;98302.19;4968415;28;900;-78
2021/11/19 13:17:56;;;;;;;;;;;;;;;22.62;27.37;98303.44;4934450;29;1005;-78